Time;durP1;ratioP1;P1;durP2;ratioP2;P2;SDS_P1;SDS_P2;PMS_P1;PMS_P2;Temp;Humidity;BMP_temperature;BMP_pressure;BME280_temperature;BME280_humidity;BME280_pressure;Samples;Min_cycle;Max_cycle;Signal;HPM_P1;HPM_P2
2021/04/27 00:02:00;;;;;;;5.35;3.40;;;5.00;90.10;;;;;;5094761;23;20784;-82
2021/04/27 00:04:02;;;;;;;7.40;3.40;;;5.00;90.10;;;;;;5103240;23;20212;-80
2021/04/27 00:06:04;;;;;;;4.57;2.87;;;4.90;90.20;;;;;;5094486;23;20464;-82
2021/04/27 00:08:07;;;;;;;5.72;3.42;;;4.90;90.00;;;;;;5102080;23;20451;-82
2021/04/27 00:10:13;;;;;;;3.60;3.30;;;4.90;90.10;;;;;;5093533;23;20288;-80
2021/04/27 00:12:14;;;;;;;7.00;3.53;;;4.90;90.20;;;;;;5093564;23;20458;-81
2021/04/27 00:14:16;;;;;;;3.33;3.03;;;4.80;90.30;;;;;;5095021;23;20460;-81
2021/04/27 00:16:19;;;;;;;9.23;4.13;;;4.90;90.30;;;;;;5095762;23;20212;-81
2021/04/27 00:18:20;;;;;;;3.92;3.30;;;5.00;90.10;;;;;;5095052;23;20460;-81
2021/04/27 00:20:24;;;;;;;4.03;3.50;;;5.00;89.70;;;;;;5095198;23;20212;-81
2021/04/27 00:22:26;;;;;;;4.68;3.53;;;5.00;89.70;;;;;;5094464;23;20844;-81
2021/04/27 00:24:31;;;;;;;4.47;3.17;;;4.90;89.90;;;;;;5096043;23;20203;-80
2021/04/27 00:26:34;;;;;;;3.55;3.25;;;4.80;90.30;;;;;;5095737;23;20463;-82
2021/04/27 00:28:36;;;;;;;4.47;3.53;;;4.80;90.50;;;;;;5095207;23;20232;-82
2021/04/27 00:30:38;;;;;;;4.33;3.37;;;4.80;90.60;;;;;;5098684;23;20524;-81
2021/04/27 00:32:40;;;;;;;4.97;3.63;;;4.70;91.00;;;;;;5105233;23;20537;-81
2021/04/27 00:34:42;;;;;;;4.90;3.57;;;4.70;91.00;;;;;;5097037;23;21343;-79
2021/04/27 00:36:44;;;;;;;4.27;3.23;;;4.70;90.90;;;;;;5095088;23;20464;-80
2021/04/27 00:38:46;;;;;;;7.38;3.10;;;4.70;91.00;;;;;;5095263;23;20454;-80
2021/04/27 00:40:48;;;;;;;4.93;3.15;;;4.80;90.80;;;;;;5094606;23;20207;-80
2021/04/27 00:42:51;;;;;;;4.60;3.60;;;4.70;90.80;;;;;;5094603;23;20207;-81
2021/04/27 00:44:52;;;;;;;3.92;3.30;;;4.80;90.70;;;;;;5096057;23;20948;-80
2021/04/27 00:46:54;;;;;;;4.85;3.20;;;4.70;90.90;;;;;;5095666;23;20231;-81
2021/04/27 00:48:57;;;;;;;4.75;3.20;;;4.60;91.10;;;;;;5098219;23;20208;-80
2021/04/27 00:51:00;;;;;;;4.30;3.33;;;4.60;91.10;;;;;;5095732;23;20805;-81
2021/04/27 00:53:03;;;;;;;4.00;3.40;;;4.60;91.20;;;;;;5095825;23;20457;-81
2021/04/27 00:55:06;;;;;;;6.23;3.43;;;4.50;91.60;;;;;;5095636;23;20454;-81
2021/04/27 00:57:09;;;;;;;4.87;3.70;;;4.40;91.70;;;;;;5103595;23;20454;-78
2021/04/27 00:59:11;;;;;;;4.20;3.13;;;4.50;91.70;;;;;;5095613;23;20519;-81
2021/04/27 01:01:13;;;;;;;3.70;3.30;;;4.50;91.60;;;;;;5095604;23;20454;-80
2021/04/27 01:03:15;;;;;;;4.13;3.30;;;4.60;91.60;;;;;;5095362;23;20207;-81
2021/04/27 01:05:20;;;;;;;4.35;3.35;;;4.50;91.60;;;;;;5103094;23;20455;-80
2021/04/27 01:07:27;;;;;;;6.78;3.95;;;4.50;91.70;;;;;;5095148;23;20211;-80
2021/04/27 01:09:33;;;;;;;3.67;3.38;;;4.50;91.60;;;;;;5096041;23;20214;-81
2021/04/27 01:11:45;;;;;;;4.60;3.67;;;4.50;91.80;;;;;;5095113;23;20211;-82
2021/04/27 01:13:54;;;;;;;3.72;3.00;;;4.60;91.40;;;;;;5095216;23;20463;-80
2021/04/27 01:15:58;;;;;;;4.20;3.20;;;4.50;91.60;;;;;;5102925;23;20199;-80
2021/04/27 01:18:02;;;;;;;5.20;3.40;;;4.50;91.50;;;;;;5094649;23;21424;-80
2021/04/27 01:20:09;;;;;;;3.40;3.10;;;4.60;91.30;;;;;;5095966;23;20230;-81
2021/04/27 01:22:18;;;;;;;4.80;3.97;;;4.70;91.00;;;;;;5095818;23;20265;-81
2021/04/27 01:24:26;;;;;;;5.25;3.95;;;4.70;90.90;;;;;;5095292;23;20199;-81
2021/04/27 01:26:33;;;;;;;4.20;3.40;;;4.50;91.30;;;;;;5095985;23;20214;-80
2021/04/27 01:28:36;;;;;;;4.05;3.30;;;4.50;91.60;;;;;;5104149;23;20203;-81
2021/04/27 01:30:40;;;;;;;3.80;3.40;;;4.40;91.80;;;;;;5095895;23;20693;-81
2021/04/27 01:32:42;;;;;;;4.43;3.88;;;4.40;91.90;;;;;;5096660;23;20203;-82
2021/04/27 01:34:46;;;;;;;5.15;3.38;;;4.40;91.90;;;;;;5103219;23;20216;-82
2021/04/27 01:36:48;;;;;;;4.78;3.50;;;4.40;91.80;;;;;;5094254;23;20510;-81
2021/04/27 01:38:50;;;;;;;5.07;3.45;;;4.50;91.90;;;;;;5100613;23;20214;-82
2021/04/27 01:40:55;;;;;;;5.15;3.60;;;4.30;92.10;;;;;;5092850;23;20239;-80
2021/04/27 01:43:01;;;;;;;7.80;4.28;;;4.40;92.00;;;;;;5093195;23;20218;-80
2021/04/27 01:45:04;;;;;;;4.80;3.70;;;4.30;92.00;;;;;;5096360;23;20492;-80
2021/04/27 01:47:08;;;;;;;4.03;3.55;;;4.30;92.10;;;;;;5096074;23;20510;-80
2021/04/27 01:49:12;;;;;;;4.97;3.50;;;4.40;92.20;;;;;;5105192;23;20207;-81
2021/04/27 01:51:14;;;;;;;3.90;3.50;;;4.40;92.10;;;;;;5097786;23;20215;-81
2021/04/27 01:53:17;;;;;;;4.00;3.60;;;4.40;92.10;;;;;;5095514;23;20578;-81
2021/04/27 01:55:20;;;;;;;5.80;3.40;;;4.50;91.90;;;;;;5096334;23;20487;-81
2021/04/27 01:57:22;;;;;;;3.72;3.33;;;4.50;91.80;;;;;;5093553;23;20451;-81
2021/04/27 01:59:25;;;;;;;3.97;3.55;;;4.50;92.00;;;;;;5094051;23;20215;-81
2021/04/27 02:01:27;;;;;;;5.80;3.60;;;4.50;91.90;;;;;;5106091;23;20286;-81
2021/04/27 02:03:29;;;;;;;16.00;4.13;;;4.50;91.80;;;;;;5096353;23;20523;-81
2021/04/27 02:05:32;;;;;;;7.33;3.47;;;4.70;91.70;;;;;;5096676;23;20489;-81
2021/04/27 02:07:34;;;;;;;5.17;3.83;;;4.80;91.20;;;;;;5095670;23;20942;-80
2021/04/27 02:09:36;;;;;;;4.20;3.20;;;4.70;91.20;;;;;;5093577;23;20454;-81
2021/04/27 02:11:40;;;;;;;4.17;3.40;;;4.50;91.80;;;;;;5091690;23;20483;-80
2021/04/27 02:13:42;;;;;;;4.67;3.50;;;4.50;92.10;;;;;;5099050;23;20455;-80
2021/04/27 02:15:45;;;;;;;5.37;3.10;;;4.50;91.90;;;;;;5091826;23;20451;-79
2021/04/27 02:17:55;;;;;;;4.40;3.33;;;4.50;92.30;;;;;;5093318;23;20455;-79
2021/04/27 02:19:58;;;;;;;4.85;3.00;;;4.40;92.20;;;;;;5094172;23;20286;-81
2021/04/27 02:22:04;;;;;;;5.33;3.30;;;4.20;92.70;;;;;;5092995;23;20217;-80
2021/04/27 02:24:07;;;;;;;3.88;3.47;;;4.20;93.00;;;;;;5092444;23;20457;-81
2021/04/27 02:26:10;;;;;;;4.55;3.05;;;4.10;93.30;;;;;;5092471;23;20217;-80
2021/04/27 02:28:13;;;;;;;3.60;3.30;;;4.10;93.60;;;;;;5090681;23;20243;-80
2021/04/27 02:30:18;;;;;;;4.05;3.42;;;4.20;93.50;;;;;;5099228;23;20676;-80
2021/04/27 02:32:22;;;;;;;4.40;3.70;;;4.20;93.30;;;;;;5090050;23;20214;-80
2021/04/27 02:34:25;;;;;;;3.93;2.93;;;4.20;93.40;;;;;;5104478;23;20451;-79
2021/04/27 02:36:28;;;;;;;10.10;3.57;;;4.10;93.90;;;;;;5109464;23;21204;-79
2021/04/27 02:38:30;;;;;;;4.20;3.05;;;4.10;93.90;;;;;;5104565;23;20510;-81
2021/04/27 02:40:32;;;;;;;5.63;3.00;;;4.10;94.10;;;;;;5097229;23;20207;-81
2021/04/27 02:42:34;;;;;;;3.90;3.50;;;4.00;94.20;;;;;;5105072;23;20268;-80
2021/04/27 02:44:37;;;;;;;3.83;3.17;;;3.90;94.40;;;;;;5097514;23;20576;-81
2021/04/27 02:46:41;;;;;;;3.85;3.45;;;3.90;94.60;;;;;;5097452;23;20487;-81
2021/04/27 02:48:44;;;;;;;3.83;3.03;;;3.90;94.80;;;;;;5096006;23;20210;-81
2021/04/27 02:50:48;;;;;;;4.00;3.10;;;4.00;94.60;;;;;;5104496;23;20484;-81
2021/04/27 02:52:50;;;;;;;5.68;4.18;;;3.90;94.50;;;;;;5094913;23;20216;-80
2021/04/27 02:54:52;;;;;;;7.78;3.20;;;4.00;94.60;;;;;;5094801;23;20707;-81
2021/04/27 02:56:54;;;;;;;5.93;3.00;;;3.90;95.00;;;;;;5103310;23;20565;-82
2021/04/27 02:58:55;;;;;;;4.05;3.20;;;3.90;95.00;;;;;;5102747;23;20211;-82
2021/04/27 03:00:58;;;;;;;4.38;3.40;;;3.90;95.20;;;;;;5095031;23;20217;-81
2021/04/27 03:03:00;;;;;;;5.05;3.70;;;3.90;95.30;;;;;;5096493;23;20258;-81
2021/04/27 03:05:03;;;;;;;3.80;3.50;;;3.90;95.20;;;;;;5096359;23;20238;-81
2021/04/27 03:07:05;;;;;;;4.40;3.30;;;3.90;95.10;;;;;;5090859;23;20218;-81
2021/04/27 03:09:07;;;;;;;4.57;3.55;;;3.90;95.20;;;;;;5095209;23;20213;-80
2021/04/27 03:11:09;;;;;;;3.83;3.30;;;4.00;95.10;;;;;;5095691;23;20219;-82
2021/04/27 03:13:11;;;;;;;4.45;3.65;;;4.00;95.20;;;;;;5095075;23;20486;-81
2021/04/27 03:15:15;;;;;;;4.43;3.40;;;3.90;95.20;;;;;;5095433;23;20738;-81
2021/04/27 03:17:16;;;;;;;5.10;3.30;;;4.00;95.00;;;;;;5103656;23;20204;-81
2021/04/27 03:19:18;;;;;;;5.38;3.38;;;4.00;95.00;;;;;;5102683;23;20270;-80
2021/04/27 03:21:21;;;;;;;4.70;3.20;;;3.90;95.10;;;;;;5095665;23;20697;-81
2021/04/27 03:23:24;;;;;;;5.97;3.90;;;3.90;95.20;;;;;;5094985;23;20543;-81
2021/04/27 03:25:26;;;;;;;4.40;3.47;;;4.00;95.10;;;;;;5094396;23;20469;-82
2021/04/27 03:27:29;;;;;;;5.85;3.40;;;4.00;95.00;;;;;;5093221;23;20267;-81
2021/04/27 03:29:31;;;;;;;5.90;3.70;;;4.00;95.10;;;;;;5092583;23;20301;-82
2021/04/27 03:31:33;;;;;;;4.72;3.65;;;3.90;95.30;;;;;;5092874;23;20764;-81
2021/04/27 03:33:36;;;;;;;5.67;3.50;;;3.90;95.40;;;;;;5093205;23;20326;-81
2021/04/27 03:35:40;;;;;;;5.30;3.90;;;3.90;95.40;;;;;;5092891;23;20455;-81
2021/04/27 03:37:43;;;;;;;5.40;4.43;;;3.90;95.40;;;;;;5091867;23;20212;-81
2021/04/27 03:39:45;;;;;;;5.22;4.28;;;3.90;95.50;;;;;;5092997;23;20459;-81
2021/04/27 03:41:47;;;;;;;5.35;3.55;;;3.90;95.40;;;;;;5092722;23;20734;-81
2021/04/27 03:43:49;;;;;;;3.97;3.30;;;3.70;95.90;;;;;;5093149;23;20212;-81
2021/04/27 03:45:54;;;;;;;5.05;3.92;;;3.70;96.20;;;;;;5093786;23;20294;-82
2021/04/27 03:47:56;;;;;;;8.30;3.47;;;3.70;96.40;;;;;;5094571;23;20833;-81
2021/04/27 03:49:59;;;;;;;9.18;4.47;;;3.70;96.40;;;;;;5095267;23;20219;-80
2021/04/27 03:52:01;;;;;;;4.38;3.70;;;3.60;96.40;;;;;;5095472;23;20211;-81
2021/04/27 03:54:05;;;;;;;7.75;4.05;;;3.60;96.80;;;;;;5096390;23;20211;-80
2021/04/27 03:56:07;;;;;;;4.55;3.80;;;3.70;96.70;;;;;;5095987;23;20254;-81
2021/04/27 03:58:09;;;;;;;5.75;4.30;;;3.60;96.70;;;;;;5095139;23;20211;-81
2021/04/27 04:00:12;;;;;;;5.63;3.78;;;3.50;97.00;;;;;;5095432;23;20211;-81
2021/04/27 04:02:14;;;;;;;4.10;3.65;;;3.60;96.90;;;;;;5094990;23;20215;-81
2021/04/27 04:04:16;;;;;;;3.92;3.35;;;3.60;96.80;;;;;;5095623;23;20226;-81
2021/04/27 04:06:18;;;;;;;9.23;3.65;;;3.40;97.10;;;;;;5095985;23;20231;-80
2021/04/27 04:08:20;;;;;;;5.95;4.00;;;3.50;97.20;;;;;;5102863;23;20208;-81
2021/04/27 04:10:23;;;;;;;5.10;3.42;;;3.60;97.10;;;;;;5095988;23;20669;-80
2021/04/27 04:12:25;;;;;;;16.50;3.97;;;3.60;96.80;;;;;;5095754;23;20211;-81
2021/04/27 04:14:27;;;;;;;5.80;3.78;;;3.60;96.90;;;;;;5096432;23;20307;-82
2021/04/27 04:16:29;;;;;;;3.90;3.50;;;3.70;96.60;;;;;;5097635;23;20286;-80
2021/04/27 04:18:31;;;;;;;6.10;4.80;;;3.80;96.10;;;;;;5096787;23;20215;-82
2021/04/27 04:20:33;;;;;;;10.35;5.95;;;3.90;96.20;;;;;;5097567;23;20213;-81
2021/04/27 04:22:35;;;;;;;6.60;4.78;;;3.70;96.30;;;;;;5096187;23;20211;-81
2021/04/27 04:24:39;;;;;;;4.65;3.92;;;3.70;96.50;;;;;;5096357;23;20208;-82
2021/04/27 04:26:42;;;;;;;4.45;3.90;;;3.70;96.50;;;;;;5096152;23;20204;-82
2021/04/27 04:28:44;;;;;;;4.75;4.25;;;3.70;96.80;;;;;;5095517;23;20660;-81
2021/04/27 04:30:46;;;;;;;6.03;4.03;;;3.60;97.00;;;;;;5095885;23;20590;-81
2021/04/27 04:32:49;;;;;;;6.40;4.90;;;3.60;97.40;;;;;;5094796;23;20211;-81
2021/04/27 04:34:51;;;;;;;4.63;3.90;;;3.60;97.40;;;;;;5096277;23;20207;-81
2021/04/27 04:36:53;;;;;;;4.43;3.65;;;3.70;97.20;;;;;;5096981;23;20212;-79
2021/04/27 04:38:55;;;;;;;4.95;3.70;;;3.60;97.40;;;;;;5095094;23;20211;-81
2021/04/27 04:41:00;;;;;;;6.78;4.50;;;3.50;97.70;;;;;;5094912;23;20207;-80
2021/04/27 04:43:11;;;;;;;5.90;4.10;;;3.60;97.50;;;;;;5096004;23;20210;-80
2021/04/27 04:45:14;;;;;;;4.80;4.03;;;3.60;97.50;;;;;;5103259;23;20199;-80
2021/04/27 04:47:19;;;;;;;5.93;3.92;;;3.70;97.30;;;;;;5095829;23;20286;-80
2021/04/27 04:49:24;;;;;;;7.22;4.07;;;3.80;97.20;;;;;;5095329;23;20477;-80
2021/04/27 04:51:29;;;;;;;6.45;3.90;;;3.60;97.60;;;;;;5095746;23;20242;-81
2021/04/27 04:53:39;;;;;;;5.82;3.88;;;3.70;97.80;;;;;;5095403;23;20222;-79
2021/04/27 04:55:41;;;;;;;9.50;7.22;;;3.90;97.30;;;;;;5101107;23;20215;-80
2021/04/27 04:57:46;;;;;;;11.85;4.35;;;4.20;96.80;;;;;;5093329;23;20295;-81
2021/04/27 04:59:54;;;;;;;5.70;4.68;;;4.30;96.20;;;;;;5093709;23;20549;-80
2021/04/27 05:01:59;;;;;;;7.43;4.07;;;4.40;96.10;;;;;;5092452;23;20599;-79
2021/04/27 05:04:04;;;;;;;5.60;3.70;;;4.50;95.70;;;;;;5101186;23;20540;-80
2021/04/27 05:06:11;;;;;;;6.45;3.90;;;4.40;95.60;;;;;;5092721;23;20207;-80
2021/04/27 05:08:16;;;;;;;4.63;3.70;;;4.50;95.70;;;;;;5092683;23;20246;-80
2021/04/27 05:10:18;;;;;;;4.50;3.75;;;4.50;95.50;;;;;;5092461;23;20630;-81
2021/04/27 05:12:20;;;;;;;6.22;3.50;;;4.40;95.80;;;;;;5092544;23;20533;-81
2021/04/27 05:14:22;;;;;;;3.58;3.28;;;4.30;96.20;;;;;;5092912;23;20695;-79
2021/04/27 05:16:25;;;;;;;5.13;3.45;;;4.20;96.20;;;;;;5093058;23;20540;-81
2021/04/27 05:18:27;;;;;;;6.45;4.18;;;4.20;96.50;;;;;;5092401;23;20556;-80
2021/04/27 05:20:29;;;;;;;6.95;4.13;;;4.20;96.80;;;;;;5093656;23;20632;-79
2021/04/27 05:22:31;;;;;;;4.20;3.80;;;4.10;96.90;;;;;;5093413;23;20238;-81
2021/04/27 05:24:34;;;;;;;6.82;4.20;;;4.00;97.20;;;;;;5093713;23;20204;-81
2021/04/27 05:26:38;;;;;;;15.77;9.85;;;4.00;97.80;;;;;;5094017;23;20211;-81
2021/04/27 05:28:40;;;;;;;29.70;16.95;;;4.10;97.60;;;;;;5092352;23;20210;-81
2021/04/27 05:30:43;;;;;;;10.40;6.53;;;4.20;97.60;;;;;;5092987;23;20215;-81
2021/04/27 05:32:45;;;;;;;4.90;3.47;;;4.30;97.50;;;;;;5092810;23;20222;-82
2021/04/27 05:34:47;;;;;;;8.20;3.72;;;4.20;97.20;;;;;;5093877;23;20302;-81
2021/04/27 05:36:49;;;;;;;8.27;3.80;;;4.30;97.50;;;;;;5094003;23;20211;-81
2021/04/27 05:38:51;;;;;;;7.40;4.35;;;4.30;97.50;;;;;;5094384;23;20208;-81
2021/04/27 05:40:54;;;;;;;6.35;3.67;;;4.30;97.50;;;;;;5096002;23;20582;-81
2021/04/27 05:42:56;;;;;;;4.05;3.20;;;4.30;97.60;;;;;;5096504;23;20259;-81
2021/04/27 05:44:58;;;;;;;6.05;4.05;;;4.40;97.60;;;;;;5093350;23;20231;-80
2021/04/27 05:47:00;;;;;;;4.45;3.75;;;4.40;97.40;;;;;;5092326;23;20208;-81
2021/04/27 05:49:04;;;;;;;4.28;3.63;;;4.50;97.30;;;;;;5092134;23;20279;-81
2021/04/27 05:51:06;;;;;;;16.67;10.13;;;4.60;96.70;;;;;;5092868;23;20203;-80
2021/04/27 05:53:08;;;;;;;18.73;10.10;;;4.70;97.40;;;;;;5091858;23;20203;-80
2021/04/27 05:55:11;;;;;;;24.43;14.77;;;4.70;97.20;;;;;;5091550;23;20455;-80
2021/04/27 05:57:13;;;;;;;6.85;4.65;;;4.80;97.10;;;;;;5092198;23;20455;-80
2021/04/27 05:59:15;;;;;;;4.90;4.37;;;4.90;96.70;;;;;;5092093;23;20295;-80
2021/04/27 06:01:17;;;;;;;5.20;3.63;;;5.00;96.90;;;;;;5091940;23;20493;-80
2021/04/27 06:03:19;;;;;;;3.70;3.20;;;5.20;96.20;;;;;;5091981;23;20474;-80
2021/04/27 06:05:21;;;;;;;20.60;14.47;;;5.20;95.90;;;;;;5092309;23;20457;-81
2021/04/27 06:07:23;;;;;;;32.13;18.10;;;5.30;96.40;;;;;;5091296;23;20468;-79
2021/04/27 06:09:25;;;;;;;6.70;4.67;;;5.60;95.90;;;;;;5091428;23;20459;-80
2021/04/27 06:11:27;;;;;;;6.63;4.00;;;5.60;95.20;;;;;;5091995;23;20552;-80
2021/04/27 06:13:29;;;;;;;9.97;4.40;;;5.70;95.30;;;;;;5092157;23;20456;-80
2021/04/27 06:15:31;;;;;;;6.73;3.80;;;5.80;95.40;;;;;;5091559;23;20532;-80
2021/04/27 06:17:35;;;;;;;6.60;4.00;;;5.90;95.00;;;;;;5092235;23;20519;-81
2021/04/27 06:19:37;;;;;;;6.70;3.40;;;5.90;95.00;;;;;;5091061;23;21040;-80
2021/04/27 06:21:41;;;;;;;4.60;3.80;;;5.90;94.50;;;;;;5091761;23;20465;-80
2021/04/27 06:23:43;;;;;;;6.23;3.67;;;5.90;94.70;;;;;;5099877;23;20529;-79
2021/04/27 06:25:45;;;;;;;6.47;3.37;;;6.10;94.90;;;;;;5099416;23;20610;-80
2021/04/27 06:27:48;;;;;;;4.83;3.57;;;6.40;94.70;;;;;;5100050;23;20556;-81
2021/04/27 06:29:51;;;;;;;4.60;3.30;;;6.60;93.80;;;;;;5092267;23;20806;-79
2021/04/27 06:31:52;;;;;;;6.83;4.00;;;6.70;92.50;;;;;;5092671;23;20462;-80
2021/04/27 06:33:54;;;;;;;4.80;3.50;;;6.80;92.50;;;;;;5092888;23;21047;-81
2021/04/27 06:35:58;;;;;;;7.50;3.60;;;7.00;92.80;;;;;;5091991;23;20805;-81
2021/04/27 06:38:01;;;;;;;3.60;3.20;;;7.00;91.50;;;;;;5099372;23;20447;-80
2021/04/27 06:40:04;;;;;;;4.47;3.30;;;7.00;90.10;;;;;;5092518;23;20462;-81
2021/04/27 06:42:06;;;;;;;3.80;2.70;;;7.00;90.50;;;;;;5099657;23;20446;-81
2021/04/27 06:44:08;;;;;;;5.70;3.30;;;7.20;89.80;;;;;;5091322;23;20963;-79
2021/04/27 06:46:10;;;;;;;3.10;2.80;;;7.10;89.10;;;;;;5091086;23;20454;-81
2021/04/27 06:48:12;;;;;;;3.03;2.70;;;7.40;87.90;;;;;;5090534;23;20451;-81
2021/04/27 06:50:16;;;;;;;3.20;2.90;;;7.50;88.20;;;;;;5091040;23;20454;-80
2021/04/27 06:52:18;;;;;;;4.03;2.67;;;7.50;86.80;;;;;;5091704;23;20944;-79
2021/04/27 06:54:21;;;;;;;9.30;5.37;;;7.40;86.60;;;;;;5099229;23;20442;-81
2021/04/27 06:56:23;;;;;;;18.37;10.23;;;7.50;86.70;;;;;;5091059;23;20457;-80
2021/04/27 06:58:25;;;;;;;3.83;3.10;;;7.70;86.70;;;;;;5091376;23;20450;-79
2021/04/27 07:00:26;;;;;;;4.17;3.10;;;7.70;85.70;;;;;;5090951;23;20482;-80
2021/04/27 07:02:29;;;;;;;4.27;2.90;;;7.60;85.90;;;;;;5099423;23;20454;-79
2021/04/27 07:04:33;;;;;;;3.90;3.13;;;7.50;85.50;;;;;;5091301;23;20485;-80
2021/04/27 07:06:35;;;;;;;3.67;2.70;;;7.50;85.10;;;;;;5090895;23;20483;-81
2021/04/27 07:08:37;;;;;;;4.03;2.90;;;7.60;85.40;;;;;;5087797;23;20463;-79
2021/04/27 07:10:40;;;;;;;4.67;3.13;;;7.60;85.30;;;;;;5089328;23;20979;-77
2021/04/27 07:12:42;;;;;;;4.40;3.00;;;7.70;85.10;;;;;;5089484;23;20454;-81
2021/04/27 07:14:44;;;;;;;3.13;2.83;;;7.90;85.40;;;;;;5096761;23;20497;-81
2021/04/27 07:16:46;;;;;;;4.27;3.07;;;7.90;84.80;;;;;;5089253;23;20455;-82
2021/04/27 07:18:48;;;;;;;4.57;2.77;;;8.10;84.70;;;;;;5089039;23;20497;-81
2021/04/27 07:20:50;;;;;;;4.70;3.00;;;8.00;83.90;;;;;;5091143;23;20455;-81
2021/04/27 07:22:52;;;;;;;6.13;2.93;;;8.20;84.30;;;;;;5090939;23;20561;-82
2021/04/27 07:24:54;;;;;;;3.37;2.70;;;8.30;83.90;;;;;;5091469;23;20482;-81
2021/04/27 07:26:57;;;;;;;4.27;2.90;;;8.40;82.70;;;;;;5091043;23;20458;-82
2021/04/27 07:28:59;;;;;;;3.47;3.03;;;8.30;82.20;;;;;;5091013;23;20537;-80
2021/04/27 07:31:02;;;;;;;6.53;3.77;;;8.50;83.10;;;;;;5091017;23;20459;-82
2021/04/27 07:33:05;;;;;;;6.60;3.13;;;8.60;82.60;;;;;;5098473;23;20775;-82
2021/04/27 07:35:11;;;;;;;4.67;3.40;;;8.90;81.90;;;;;;5101436;23;21003;-80
2021/04/27 07:37:12;;;;;;;5.13;3.20;;;9.00;81.80;;;;;;5102480;23;21017;-81
2021/04/27 07:39:15;;;;;;;5.93;3.10;;;9.10;81.40;;;;;;5099367;23;20902;-81
2021/04/27 07:41:17;;;;;;;3.40;2.60;;;9.00;80.70;;;;;;5094351;23;20458;-82
2021/04/27 07:43:22;;;;;;;3.07;2.77;;;8.80;80.20;;;;;;5102897;23;20457;-81
2021/04/27 07:45:30;;;;;;;3.23;2.93;;;8.70;80.50;;;;;;5094984;23;20455;-80
2021/04/27 07:47:32;;;;;;;4.30;3.20;;;8.90;81.30;;;;;;5090555;23;20436;-81
2021/04/27 07:49:34;;;;;;;3.77;2.33;;;9.00;80.40;;;;;;5090528;23;20450;-81
2021/04/27 07:51:37;;;;;;;5.63;3.23;;;9.10;79.30;;;;;;5090535;23;20453;-80
2021/04/27 07:53:39;;;;;;;3.93;3.30;;;9.00;79.90;;;;;;5091013;23;20512;-81
2021/04/27 07:55:41;;;;;;;4.43;3.13;;;8.90;79.70;;;;;;5090109;23;20438;-81
2021/04/27 07:57:43;;;;;;;3.30;2.93;;;8.70;79.30;;;;;;5089682;23;20458;-80
2021/04/27 07:59:48;;;;;;;6.00;2.87;;;8.80;79.70;;;;;;5090331;23;20757;-79
2021/04/27 08:01:50;;;;;;;6.23;3.93;;;9.00;79.20;;;;;;5087825;23;20537;-81
2021/04/27 08:03:52;;;;;;;5.30;2.73;;;8.80;78.70;;;;;;5089319;23;20920;-80
2021/04/27 08:05:55;;;;;;;7.40;4.30;;;8.90;78.60;;;;;;5089238;23;21003;-79
2021/04/27 08:07:57;;;;;;;6.77;2.60;;;9.10;78.70;;;;;;5088762;23;20465;-79
2021/04/27 08:10:07;;;;;;;2.63;2.43;;;9.50;78.80;;;;;;5088980;23;20943;-82
2021/04/27 08:12:09;;;;;;;3.30;2.60;;;9.70;77.50;;;;;;5090482;23;20524;-79
2021/04/27 08:14:13;;;;;;;6.10;2.97;;;9.90;77.50;;;;;;5091162;23;20482;-81
2021/04/27 08:16:16;;;;;;;3.20;2.90;;;9.90;77.30;;;;;;5093594;23;20464;-79
2021/04/27 08:18:18;;;;;;;3.70;3.10;;;9.80;77.40;;;;;;5094459;23;20525;-80
2021/04/27 08:20:20;;;;;;;3.47;2.97;;;9.60;77.40;;;;;;5092328;23;20485;-80
2021/04/27 08:22:23;;;;;;;3.30;2.97;;;9.70;77.60;;;;;;5102121;23;20614;-81
2021/04/27 08:24:25;;;;;;;3.60;2.93;;;9.60;77.10;;;;;;5097610;23;20456;-79
2021/04/27 08:26:37;;;;;;;2.90;2.60;;;9.50;76.90;;;;;;5094951;23;20454;-80
2021/04/27 08:28:40;;;;;;;4.17;3.00;;;9.60;77.00;;;;;;5096192;23;20509;-79
2021/04/27 08:30:42;;;;;;;4.83;2.77;;;9.60;77.50;;;;;;5095336;23;20520;-78
2021/04/27 08:32:45;;;;;;;3.90;2.30;;;9.80;77.40;;;;;;5092029;23;20495;-78
2021/04/27 08:34:47;;;;;;;3.90;2.80;;;9.90;76.50;;;;;;5091088;23;20462;-80
2021/04/27 08:36:50;;;;;;;3.07;2.73;;;10.00;75.10;;;;;;5091737;23;20512;-80
2021/04/27 08:38:52;;;;;;;8.57;4.13;;;10.10;75.20;;;;;;5090823;23;20454;-78
2021/04/27 08:40:57;;;;;;;4.67;3.60;;;10.10;75.30;;;;;;5090870;23;20944;-80
2021/04/27 08:43:00;;;;;;;4.90;3.10;;;10.20;74.80;;;;;;5099795;23;20530;-80
2021/04/27 08:45:04;;;;;;;3.03;2.53;;;10.30;73.50;;;;;;5091101;23;20458;-79
2021/04/27 08:47:06;;;;;;;4.10;2.93;;;10.20;72.60;;;;;;5090236;23;20440;-78
2021/04/27 08:49:09;;;;;;;2.83;2.63;;;10.40;73.30;;;;;;5089717;23;20433;-78
2021/04/27 08:51:12;;;;;;;7.27;2.53;;;10.50;73.50;;;;;;5090030;23;20429;-80
2021/04/27 08:53:14;;;;;;;2.60;2.20;;;10.50;73.50;;;;;;5090912;23;20434;-78
2021/04/27 08:55:16;;;;;;;3.30;2.80;;;10.70;73.60;;;;;;5090641;23;20432;-78
2021/04/27 08:57:20;;;;;;;2.43;2.23;;;11.10;73.30;;;;;;5088912;23;20448;-79
2021/04/27 08:59:24;;;;;;;5.03;2.50;;;10.80;71.10;;;;;;5088666;23;20433;-79
2021/04/27 09:01:27;;;;;;;3.57;2.20;;;10.90;72.40;;;;;;5088943;23;20462;-78
2021/04/27 09:03:41;;;;;;;8.03;2.80;;;10.50;72.50;;;;;;5088019;23;20433;-79
2021/04/27 09:05:45;;;;;;;5.80;2.73;;;10.80;71.80;;;;;;5089512;23;20937;-81
2021/04/27 09:08:05;;;;;;;3.30;2.53;;;10.70;71.30;;;;;;5098585;23;20496;-81
2021/04/27 09:10:14;;;;;;;3.70;2.57;;;10.90;72.00;;;;;;5098252;23;20484;-79
2021/04/27 09:12:20;;;;;;;4.83;2.70;;;11.00;70.90;;;;;;5091296;23;20746;-80
2021/04/27 09:14:23;;;;;;;4.77;2.60;;;10.80;71.30;;;;;;5091757;23;20426;-80
2021/04/27 09:16:26;;;;;;;2.80;2.50;;;11.00;72.00;;;;;;5091636;23;20775;-81
2021/04/27 09:18:30;;;;;;;9.20;2.60;;;11.30;71.20;;;;;;5091521;23;20913;-79
2021/04/27 09:20:49;;;;;;;2.53;2.33;;;11.60;71.20;;;;;;5099211;23;20775;-79
2021/04/27 09:23:06;;;;;;;3.23;2.00;;;11.90;70.00;;;;;;5090925;23;20454;-79
2021/04/27 09:25:10;;;;;;;2.90;2.60;;;11.30;69.00;;;;;;5097682;23;20447;-79
2021/04/27 09:27:14;;;;;;;4.90;2.67;;;11.50;69.60;;;;;;5099769;23;20439;-79
2021/04/27 09:29:28;;;;;;;3.20;2.60;;;11.30;69.40;;;;;;5075116;23;20489;-81
2021/04/27 09:31:34;;;;;;;4.03;2.70;;;11.30;68.90;;;;;;5067743;23;20426;-80
2021/04/27 09:33:42;;;;;;;3.57;2.40;;;11.60;68.70;;;;;;5074837;23;20468;-80
2021/04/27 09:35:46;;;;;;;4.27;2.53;;;11.80;68.40;;;;;;5075297;23;20459;-80
2021/04/27 09:38:07;;;;;;;2.80;2.60;;;11.60;69.20;;;;;;5075120;23;20433;-80
2021/04/27 09:40:13;;;;;;;4.73;2.80;;;12.10;69.70;;;;;;5075594;23;20423;-80
2021/04/27 09:42:19;;;;;;;2.90;2.27;;;12.30;68.40;;;;;;5074983;23;20539;-80
2021/04/27 09:44:29;;;;;;;4.30;2.40;;;11.60;66.20;;;;;;5066935;23;20531;-80
2021/04/27 09:46:31;;;;;;;3.57;2.97;;;11.30;67.50;;;;;;5075020;23;20543;-80
2021/04/27 09:48:36;;;;;;;2.77;2.43;;;11.30;68.10;;;;;;5067281;23;20483;-80
2021/04/27 09:51:20;;;;;;;6.37;2.90;;;11.40;67.90;;;;;;5066688;23;20447;-80
2021/04/27 09:53:42;;;;;;;2.60;2.40;;;11.70;67.70;;;;;;5066639;23;21007;-80
2021/04/27 09:55:54;;;;;;;3.17;2.60;;;11.80;67.10;;;;;;5074727;23;20459;-80
2021/04/27 09:57:57;;;;;;;3.03;2.77;;;12.10;66.70;;;;;;5065348;23;20460;-80
2021/04/27 10:00:23;;;;;;;2.77;2.50;;;12.40;66.50;;;;;;5064830;23;20455;-80
2021/04/27 10:08:30;;;;;;;5.53;3.50;;;13.40;64.60;;;;;;4850594;24;21101;-79
2021/04/27 10:10:36;;;;;;;7.20;4.30;;;12.50;64.40;;;;;;4953165;23;20516;-80
2021/04/27 10:12:40;;;;;;;4.07;2.70;;;12.60;64.50;;;;;;4999640;23;20474;-80
2021/04/27 10:14:42;;;;;;;3.57;2.33;;;12.30;63.80;;;;;;4991983;23;20478;-80
2021/04/27 10:16:45;;;;;;;2.70;2.43;;;12.40;64.50;;;;;;4990641;23;20573;-79
2021/04/27 10:18:47;;;;;;;2.90;2.70;;;12.50;63.80;;;;;;5015251;23;20548;-79
2021/04/27 10:20:50;;;;;;;6.80;2.40;;;12.40;62.90;;;;;;5015400;23;20492;-79
2021/04/27 10:22:52;;;;;;;3.13;2.20;;;12.20;62.70;;;;;;5022727;23;20458;-80
2021/04/27 10:24:54;;;;;;;2.57;2.10;;;12.60;62.90;;;;;;5014495;23;20464;-80
2021/04/27 10:26:58;;;;;;;3.07;2.43;;;12.60;62.20;;;;;;5023275;23;20999;-79
2021/04/27 10:29:04;;;;;;;4.00;2.20;;;12.50;62.90;;;;;;5014473;23;20569;-80
2021/04/27 10:31:15;;;;;;;4.47;2.23;;;12.70;62.00;;;;;;5015842;23;20793;-80
2021/04/27 10:33:23;;;;;;;2.23;2.03;;;12.30;62.30;;;;;;5015522;23;20517;-79
2021/04/27 10:35:25;;;;;;;2.47;2.20;;;12.30;62.70;;;;;;5021606;23;20497;-79
2021/04/27 10:37:29;;;;;;;2.57;2.20;;;12.20;61.70;;;;;;5015092;23;20979;-79
2021/04/27 10:39:37;;;;;;;2.60;2.40;;;12.20;62.10;;;;;;5025177;23;20461;-79
2021/04/27 10:41:50;;;;;;;2.70;2.10;;;12.60;61.70;;;;;;5045166;23;21075;-79
2021/04/27 10:43:55;;;;;;;2.77;2.33;;;12.70;61.70;;;;;;5069206;23;20460;-80
2021/04/27 10:45:59;;;;;;;3.00;1.97;;;12.80;61.40;;;;;;5076754;23;20454;-79
2021/04/27 10:48:04;;;;;;;2.63;2.17;;;13.10;60.70;;;;;;5068591;23;20829;-79
2021/04/27 10:50:07;;;;;;;2.53;2.30;;;13.20;60.40;;;;;;5068754;23;20486;-80
2021/04/27 10:52:25;;;;;;;2.30;1.90;;;13.30;59.90;;;;;;5069153;23;20451;-79
2021/04/27 10:54:38;;;;;;;2.63;2.40;;;13.40;60.20;;;;;;5075215;23;20456;-79
2021/04/27 10:57:17;;;;;;;2.50;2.30;;;14.00;59.80;;;;;;5074505;23;20913;-79
2021/04/27 10:59:22;;;;;;;2.20;2.00;;;13.50;60.20;;;;;;5066393;23;20439;-79